createdAt,value
2023-05-08T03:34:15.377Z,7.53
2023-05-08T03:36:43.941Z,7.72
2023-05-08T03:39:12.898Z,7.65
2023-05-08T03:41:42.074Z,7.45
2023-05-08T03:44:10.626Z,8.27
2023-05-08T03:46:39.855Z,7.40
2023-05-08T03:49:10.575Z,8.15
2023-05-08T03:51:41.328Z,7.90
2023-05-08T03:54:09.903Z,8.38
2023-05-08T03:56:38.415Z,9.38
2023-05-08T03:59:11.873Z,8.02
2023-05-08T04:01:41.581Z,7.90
2023-05-08T04:04:16.526Z,8.13
2023-05-08T04:06:51.433Z,8.27
2023-05-08T04:09:33.101Z,8.13
2023-05-08T04:12:04.025Z,8.70
2023-05-08T04:14:36.468Z,8.85
2023-05-08T04:17:05.971Z,7.95
2023-05-08T04:19:35.719Z,7.43
2023-05-08T04:22:07.849Z,7.88
2023-05-08T04:24:41.039Z,7.57
2023-05-08T04:27:10.960Z,7.43
2023-05-08T04:29:39.652Z,8.35
2023-05-08T04:32:08.576Z,8.07
2023-05-08T04:34:37.986Z,7.82
2023-05-08T04:37:09.494Z,8.40
2023-05-08T04:39:37.971Z,8.25
2023-05-08T04:42:06.447Z,8.63
2023-05-08T04:44:36.685Z,8.75
2023-05-08T04:47:05.172Z,9.20
2023-05-08T04:49:33.641Z,8.77
2023-05-08T04:52:02.328Z,7.60
2023-05-08T04:54:32.137Z,8.15
2023-05-08T04:57:00.662Z,9.00
2023-05-08T04:59:29.541Z,9.23
2023-05-08T05:01:58.314Z,9.25
2023-05-08T05:04:26.975Z,8.85
2023-05-08T05:06:57.030Z,8.40
2023-05-08T05:09:25.790Z,9.60
2023-05-08T05:11:57.602Z,8.15
2023-05-08T05:14:26.930Z,8.70
2023-05-08T05:16:55.300Z,8.48
2023-05-08T05:19:23.649Z,8.20
2023-05-08T05:21:52.465Z,7.57
2023-05-08T05:24:21.043Z,8.20
2023-05-08T05:26:49.448Z,7.93
2023-05-08T05:29:19.459Z,8.63
2023-05-08T05:31:47.958Z,8.90
2023-05-08T05:34:16.413Z,8.50
2023-05-08T05:36:44.774Z,8.52
2023-05-08T05:39:13.605Z,9.25
2023-05-08T05:41:44.166Z,9.45
2023-05-08T05:44:13.532Z,8.73
2023-05-08T05:46:44.580Z,9.27
2023-05-08T05:49:13.740Z,9.23
2023-05-08T05:51:42.444Z,8.88
2023-05-08T05:54:10.914Z,8.75
2023-05-08T05:56:39.424Z,9.05
2023-05-08T05:59:07.821Z,9.05
2023-05-08T06:01:36.530Z,8.75
2023-05-08T06:04:07.175Z,8.88
2023-05-08T06:06:35.755Z,9.07
2023-05-08T06:09:04.364Z,9.02
2023-05-08T06:11:32.693Z,9.13
2023-05-08T06:14:01.011Z,9.25
2023-05-08T06:16:30.416Z,9.48
2023-05-08T06:18:58.866Z,8.90
2023-05-08T06:21:29.424Z,9.48
2023-05-08T06:23:57.761Z,9.52
2023-05-08T06:26:26.172Z,9.20
2023-05-08T06:28:54.507Z,9.55
2023-05-08T06:31:22.853Z,9.90
2023-05-08T06:33:51.231Z,10.15
2023-05-08T06:36:19.581Z,8.85
2023-05-08T06:38:49.284Z,9.23
2023-05-08T06:41:17.766Z,8.75
2023-05-08T06:43:46.024Z,9.43
2023-05-08T06:46:14.364Z,10.35
2023-05-08T06:48:42.749Z,9.63
2023-05-08T06:51:11.055Z,9.75
2023-05-08T06:53:39.335Z,9.13
2023-05-08T06:56:09.395Z,9.07
2023-05-08T06:58:37.978Z,8.73
2023-05-08T07:01:07.111Z,9.07
2023-05-08T07:03:44.947Z,9.13
2023-05-08T07:06:19.272Z,8.68
2023-05-08T07:08:49.995Z,8.50
2023-05-08T07:11:22.599Z,8.63
2023-05-08T07:13:53.247Z,8.77
2023-05-08T07:16:29.147Z,9.23
2023-05-08T07:19:02.355Z,8.98
2023-05-08T07:21:31.881Z,9.23
2023-05-08T07:24:00.705Z,9.45
2023-05-08T07:26:30.489Z,8.60
2023-05-08T07:28:58.841Z,9.50
2023-05-08T07:31:27.234Z,8.65
2023-05-08T07:33:55.627Z,8.75
2023-05-08T07:36:23.945Z,8.88
2023-05-08T07:38:52.205Z,9.07
2023-05-08T07:41:20.525Z,8.45
2023-05-08T07:43:50.187Z,8.57
2023-05-08T07:46:19.180Z,9.20
2023-05-08T07:48:47.570Z,9.43
2023-05-08T07:51:16.032Z,8.98
2023-05-08T07:53:44.406Z,9.35
2023-05-08T07:56:12.682Z,8.73
2023-05-08T07:58:42.520Z,7.45
2023-05-08T08:01:13.613Z,7.93
2023-05-08T08:03:43.792Z,7.88
2023-05-08T08:06:15.248Z,8.02
2023-05-08T08:08:44.880Z,8.30
2023-05-08T08:11:17.348Z,8.30
2023-05-08T08:13:50.345Z,8.57
2023-05-08T08:16:22.098Z,7.70
2023-05-08T08:18:52.603Z,8.10
2023-05-08T08:21:21.693Z,8.68
2023-05-08T08:23:49.983Z,8.27
2023-05-08T08:26:18.324Z,8.40
2023-05-08T08:28:46.653Z,7.88
2023-05-08T08:31:16.390Z,8.25
2023-05-08T08:33:46.552Z,8.63
2023-05-08T08:36:15.021Z,8.10
2023-05-08T08:38:43.610Z,8.20
2023-05-08T08:41:15.199Z,8.77
2023-05-08T08:43:44.068Z,8.40
2023-05-08T08:46:14.587Z,8.45
2023-05-08T08:48:45.535Z,9.10
2023-05-08T08:51:16.583Z,9.50
2023-05-08T08:53:46.120Z,8.90
2023-05-08T08:56:15.464Z,8.73
2023-05-08T08:58:52.067Z,9.70
2023-05-08T09:01:23.235Z,8.55
2023-05-08T09:03:52.940Z,9.13
2023-05-08T09:06:24.655Z,9.30
2023-05-08T09:08:56.820Z,8.90
2023-05-08T09:11:25.980Z,9.55
2023-05-08T09:13:56.455Z,9.05
2023-05-08T09:16:25.265Z,9.57
2023-05-08T09:18:53.706Z,8.52
2023-05-08T09:21:24.277Z,8.85
2023-05-08T09:23:59.520Z,9.95
2023-05-08T09:26:37.850Z,9.27
2023-05-08T09:29:14.410Z,8.90
2023-05-08T09:31:44.014Z,9.65
2023-05-08T09:34:13.359Z,9.07
2023-05-08T09:36:43.074Z,9.50
2023-05-08T09:39:13.314Z,9.23
2023-05-08T09:41:41.887Z,9.13
2023-05-08T09:44:10.147Z,8.98
2023-05-08T09:46:38.460Z,9.32
2023-05-08T09:49:06.823Z,9.40
2023-05-08T09:51:35.182Z,8.98
2023-05-08T09:54:06.507Z,9.20
2023-05-08T09:56:36.181Z,9.35
2023-05-08T09:59:06.438Z,9.10
2023-05-08T10:01:36.118Z,9.02
2023-05-08T10:04:05.990Z,8.90
2023-05-08T10:06:36.311Z,10.02
2023-05-08T10:09:10.080Z,10.02
2023-05-08T10:11:38.671Z,9.43
2023-05-08T10:14:07.113Z,10.45
2023-05-08T10:16:38.657Z,9.40
2023-05-08T10:19:11.257Z,9.52
2023-05-08T10:21:39.844Z,10.00
2023-05-08T10:24:12.681Z,9.23
2023-05-08T10:26:53.816Z,9.73
2023-05-08T10:29:34.551Z,8.95
2023-05-08T10:32:04.538Z,9.00
2023-05-08T10:34:33.616Z,9.07
2023-05-08T10:37:02.102Z,8.45
2023-05-08T10:39:32.451Z,8.32
2023-05-08T10:42:00.946Z,7.78
2023-05-08T10:44:30.552Z,7.70
2023-05-08T10:47:02.755Z,7.47
2023-05-08T10:49:36.618Z,7.50
2023-05-08T10:52:13.950Z,7.88
2023-05-08T10:54:50.027Z,7.32
2023-05-08T10:57:18.408Z,7.40
2023-05-08T10:59:47.621Z,7.47
2023-05-08T11:02:16.523Z,7.38
2023-05-08T11:04:45.095Z,7.78
2023-05-08T11:07:13.536Z,7.63
2023-05-08T11:09:49.543Z,7.82
2023-05-08T11:12:22.960Z,8.20
2023-05-08T11:15:00.429Z,8.60
2023-05-08T11:17:28.924Z,8.05
2023-05-08T11:19:58.351Z,7.80
2023-05-08T11:22:28.840Z,8.68
2023-05-08T11:25:03.188Z,7.57
2023-05-08T11:27:33.472Z,8.20
2023-05-08T11:30:35.702Z,8.20
2023-05-08T11:33:24.911Z,8.43
2023-05-08T11:35:56.887Z,7.63
2023-05-08T11:38:26.681Z,8.48
2023-05-08T11:41:00.903Z,8.30
2023-05-08T11:43:37.080Z,8.90
2023-05-08T11:46:06.284Z,8.32
2023-05-08T11:48:34.757Z,7.28
2023-05-08T11:51:04.129Z,8.48
2023-05-08T11:53:33.047Z,8.35
2023-05-08T11:56:02.815Z,8.10
2023-05-08T11:58:31.365Z,8.85
2023-05-08T12:00:59.731Z,8.38
2023-05-08T12:03:28.196Z,8.18
2023-05-08T12:05:57.535Z,7.82
2023-05-08T12:08:26.035Z,9.10
2023-05-08T12:10:55.234Z,8.55
2023-05-08T12:13:25.648Z,9.13
2023-05-08T12:15:55.044Z,9.48
2023-05-08T12:18:23.832Z,9.15
2023-05-08T12:20:56.829Z,8.90
2023-05-08T12:23:25.090Z,9.20
2023-05-08T12:25:55.430Z,9.07
2023-05-08T12:28:25.520Z,8.93
2023-05-08T12:30:54.119Z,8.27
2023-05-08T12:33:22.589Z,8.57
2023-05-08T12:35:51.109Z,9.10
2023-05-08T12:38:19.743Z,9.82
2023-05-08T12:40:52.902Z,8.93
2023-05-08T12:43:21.272Z,8.30
2023-05-08T12:45:52.837Z,9.60
2023-05-08T12:48:21.835Z,8.93
2023-05-08T12:50:50.536Z,9.00
2023-05-08T12:53:19.417Z,9.38
2023-05-08T12:55:53.101Z,8.70
2023-05-08T12:58:22.430Z,7.80
2023-05-08T13:00:53.005Z,9.15
2023-05-08T13:03:26.080Z,9.38
2023-05-08T13:05:55.127Z,9.30
2023-05-08T13:08:30.773Z,9.10
2023-05-08T13:10:59.053Z,8.88
2023-05-08T13:13:28.249Z,9.60
2023-05-08T13:15:58.322Z,9.60
2023-05-08T13:18:27.734Z,9.40
2023-05-08T13:20:56.450Z,8.48
2023-05-08T13:23:24.967Z,9.25
2023-05-08T13:25:53.220Z,9.40
2023-05-08T13:28:21.513Z,9.45
2023-05-08T13:30:49.993Z,9.48
2023-05-08T13:33:19.760Z,8.95
2023-05-08T13:35:48.459Z,8.32
2023-05-08T13:38:17.093Z,9.57
2023-05-08T13:40:45.621Z,8.80
2023-05-08T13:43:14.423Z,8.25
2023-05-08T13:45:44.901Z,7.50
2023-05-08T13:48:13.325Z,7.50
2023-05-08T13:50:42.970Z,7.55
2023-05-08T13:53:11.281Z,8.70
2023-05-08T13:55:39.689Z,8.45
2023-05-08T13:58:08.096Z,8.35
2023-05-08T14:00:36.449Z,8.23
2023-05-08T14:03:04.833Z,8.18
2023-05-08T14:05:33.277Z,8.00
2023-05-08T14:08:02.850Z,7.85
2023-05-08T14:10:31.110Z,7.78
2023-05-08T14:12:59.486Z,8.00
2023-05-08T14:15:36.522Z,7.82
2023-05-08T14:18:05.979Z,8.00
2023-05-08T14:20:34.385Z,7.85
2023-05-08T14:23:04.038Z,8.60
2023-05-08T14:25:32.360Z,7.95
2023-05-08T14:28:00.634Z,8.02
2023-05-08T14:30:29.384Z,9.00
2023-05-08T14:32:57.843Z,7.97
2023-05-08T14:35:26.199Z,7.93
2023-05-08T14:37:54.493Z,7.18
2023-05-08T14:40:24.756Z,7.45
2023-05-08T14:42:53.073Z,7.15
2023-05-08T14:45:21.654Z,7.85
2023-05-08T14:47:50.495Z,7.15
2023-05-08T14:50:18.815Z,7.07
2023-05-08T14:52:47.322Z,7.80
2023-05-08T14:55:20.640Z,6.80
2023-05-08T14:57:50.772Z,7.45
2023-05-08T15:00:20.404Z,6.82
2023-05-08T15:02:48.770Z,6.78
2023-05-08T15:05:20.171Z,6.53
2023-05-08T15:07:50.070Z,6.63
2023-05-08T15:10:18.447Z,6.07
2023-05-08T15:12:46.940Z,6.60
2023-05-08T15:15:16.800Z,6.35
2023-05-08T15:17:45.823Z,6.45
2023-05-08T15:20:14.222Z,6.10
2023-05-08T15:22:42.553Z,5.85
2023-05-08T15:25:13.311Z,6.78
2023-05-08T15:27:42.329Z,7.30
2023-05-08T15:30:11.206Z,6.90
2023-05-08T15:32:43.273Z,6.47
2023-05-08T15:35:12.209Z,7.18
2023-05-08T15:37:41.133Z,6.63
2023-05-08T15:40:09.979Z,7.68
2023-05-08T15:42:38.331Z,7.80
2023-05-08T15:45:06.925Z,7.22
2023-05-08T15:47:37.684Z,7.35
2023-05-08T15:50:08.103Z,7.43
2023-05-08T15:52:36.548Z,7.82
2023-05-08T15:55:05.175Z,7.78
2023-05-08T15:57:33.707Z,7.47
2023-05-08T16:00:02.212Z,7.07
2023-05-08T16:02:33.944Z,6.97
2023-05-08T16:05:02.434Z,7.30
2023-05-08T16:07:33.873Z,6.72
2023-05-08T16:10:02.286Z,7.53
2023-05-08T16:12:30.752Z,7.30
2023-05-08T16:14:59.091Z,7.68
2023-05-08T16:17:27.527Z,7.22
2023-05-08T16:19:55.924Z,7.93
2023-05-08T16:22:24.698Z,7.47
2023-05-08T16:24:55.468Z,7.60
2023-05-08T16:27:23.763Z,7.35
2023-05-08T16:29:52.429Z,7.97
2023-05-08T16:32:20.755Z,6.78
2023-05-08T16:34:49.065Z,7.13
2023-05-08T16:37:17.485Z,7.95
2023-05-08T16:39:45.843Z,7.78
2023-05-08T16:42:15.495Z,6.68
2023-05-08T16:44:43.853Z,7.78
2023-05-08T16:47:12.352Z,8.30
2023-05-08T16:49:41.403Z,8.18
2023-05-08T16:52:10.002Z,7.28
2023-05-08T16:54:38.393Z,7.88
2023-05-08T16:57:06.819Z,8.23
2023-05-08T16:59:36.580Z,7.53
2023-05-08T17:02:05.084Z,8.48
2023-05-08T17:04:33.587Z,8.35
2023-05-08T17:07:04.962Z,8.55
2023-05-08T17:09:34.479Z,7.85
2023-05-08T17:12:03.470Z,8.70
2023-05-08T17:14:31.900Z,8.85
2023-05-08T17:17:01.920Z,8.15
2023-05-08T17:19:30.444Z,7.95
2023-05-08T17:21:59.825Z,7.75
2023-05-08T17:24:28.430Z,8.48
2023-05-08T17:26:57.089Z,8.73
2023-05-08T17:29:25.754Z,8.68
2023-05-08T17:31:54.106Z,9.13
2023-05-08T17:34:23.843Z,7.82
2023-05-08T17:36:54.473Z,8.40
2023-05-08T17:39:23.530Z,9.25
2023-05-08T17:41:52.111Z,8.27
2023-05-08T17:44:20.474Z,8.52
2023-05-08T17:46:49.103Z,8.80
2023-05-08T17:49:19.232Z,8.50
2023-05-08T17:51:49.228Z,9.23
2023-05-08T17:54:17.658Z,8.48
2023-05-08T17:56:46.631Z,9.23
2023-05-08T17:59:14.978Z,9.38
2023-05-08T18:01:43.700Z,9.55
2023-05-08T18:04:12.020Z,8.52
2023-05-08T18:06:40.342Z,8.93
2023-05-08T18:09:10.078Z,8.27
2023-05-08T18:11:38.476Z,9.02
2023-05-08T18:14:06.803Z,8.82
2023-05-08T18:16:35.207Z,8.98
2023-05-08T18:19:03.703Z,9.02
2023-05-08T18:21:32.392Z,8.55
2023-05-08T18:24:00.882Z,8.23
2023-05-08T18:26:30.713Z,8.73
2023-05-08T18:28:59.139Z,8.40
2023-05-08T18:31:27.762Z,8.18
2023-05-08T18:33:56.205Z,8.20
2023-05-08T18:36:24.605Z,8.65
2023-05-08T18:38:53.020Z,8.93
2023-05-08T18:41:21.494Z,8.25
2023-05-08T18:43:51.154Z,8.20
2023-05-08T18:46:19.489Z,9.43
2023-05-08T18:48:48.018Z,8.65
2023-05-08T18:51:16.406Z,8.88
2023-05-08T18:53:44.712Z,8.88
2023-05-08T18:56:13.088Z,8.40
2023-05-08T18:58:41.461Z,8.35
2023-05-08T19:01:11.085Z,8.75
2023-05-08T19:03:39.573Z,9.18
2023-05-08T19:06:07.965Z,8.65
2023-05-08T19:08:36.317Z,9.02
2023-05-08T19:11:04.750Z,9.68
2023-05-08T19:13:33.201Z,9.00
2023-05-08T19:16:02.518Z,9.48
2023-05-08T19:18:32.422Z,9.45
2023-05-08T19:21:00.757Z,9.30
2023-05-08T19:23:29.160Z,9.52
2023-05-08T19:25:57.574Z,9.25
2023-05-08T19:28:26.013Z,9.30
2023-05-08T19:30:54.359Z,10.00
2023-05-08T19:33:22.710Z,9.10
2023-05-08T19:35:52.404Z,9.57
2023-05-08T19:38:20.779Z,9.95
2023-05-08T19:40:57.009Z,9.93
2023-05-08T19:43:26.731Z,8.88
2023-05-08T19:45:55.352Z,9.90
2023-05-08T19:48:23.783Z,9.52
2023-05-08T19:50:55.026Z,9.70
2023-05-08T19:53:23.823Z,9.40
2023-05-08T19:55:52.230Z,9.73
2023-05-08T19:58:20.534Z,10.27
2023-05-08T20:00:51.544Z,9.82
2023-05-08T20:03:20.727Z,9.48
2023-05-08T20:05:49.309Z,9.55
2023-05-08T20:08:19.042Z,10.00
2023-05-08T20:10:48.812Z,10.00
2023-05-08T20:13:17.531Z,10.35
2023-05-08T20:15:46.080Z,10.38
2023-05-08T20:18:14.539Z,10.18
2023-05-08T20:20:44.978Z,11.00
2023-05-08T20:23:13.383Z,11.85
2023-05-08T20:25:46.009Z,10.60
2023-05-08T20:28:14.360Z,10.75
2023-05-08T20:30:42.738Z,10.88
2023-05-08T20:33:11.041Z,10.38
2023-05-08T20:35:39.424Z,9.93
2023-05-08T20:38:07.818Z,10.90
2023-05-08T20:40:36.460Z,10.77
2023-05-08T20:43:06.072Z,10.57
2023-05-08T20:45:34.432Z,11.35
2023-05-08T20:48:02.826Z,11.27
2023-05-08T20:50:31.156Z,12.52
2023-05-08T20:52:59.455Z,11.85
2023-05-08T20:55:27.746Z,10.85
2023-05-08T20:57:56.161Z,11.07
2023-05-08T21:00:26.741Z,10.73
2023-05-08T21:02:58.034Z,11.05
2023-05-08T21:05:26.674Z,10.50
2023-05-08T21:07:58.325Z,10.18
2023-05-08T21:10:28.524Z,11.13
2023-05-08T21:12:56.882Z,11.02
2023-05-08T21:15:26.656Z,11.00
2023-05-08T21:17:56.795Z,11.65
2023-05-08T21:20:27.680Z,10.70
2023-05-08T21:22:58.990Z,10.85
2023-05-08T21:25:27.820Z,11.13
2023-05-08T21:27:56.322Z,11.35
2023-05-08T21:30:24.696Z,10.98
2023-05-08T21:32:55.547Z,11.05
2023-05-08T21:35:24.025Z,12.30
2023-05-08T21:37:54.505Z,10.90
2023-05-08T21:40:23.334Z,11.85
2023-05-08T21:42:51.698Z,11.77
2023-05-08T21:45:20.093Z,11.50
2023-05-08T21:47:48.455Z,11.93
2023-05-08T21:50:18.255Z,11.30
2023-05-08T21:52:46.631Z,11.20
2023-05-08T21:55:15.107Z,11.90
2023-05-08T21:57:43.691Z,11.32
2023-05-08T22:00:12.452Z,10.82
2023-05-08T22:02:47.896Z,12.02
2023-05-08T22:05:17.660Z,10.65
2023-05-08T22:07:45.982Z,11.93
2023-05-08T22:10:14.745Z,11.70
2023-05-08T22:12:43.061Z,11.60
2023-05-08T22:15:25.521Z,11.88
2023-05-08T22:17:55.773Z,12.65
2023-05-08T22:20:25.807Z,12.57
2023-05-08T22:22:54.219Z,12.35
2023-05-08T22:25:22.578Z,11.30
2023-05-08T22:27:50.929Z,11.73
2023-05-08T22:30:19.285Z,12.63
2023-05-08T22:32:50.387Z,12.18
2023-05-08T22:35:18.806Z,12.98
2023-05-08T22:37:48.363Z,13.52
2023-05-08T22:40:16.656Z,14.30
2023-05-08T22:42:45.498Z,13.10
2023-05-08T22:45:14.119Z,13.50
2023-05-08T22:47:42.719Z,13.25
2023-05-08T22:50:11.708Z,12.52
2023-05-08T22:52:40.942Z,13.77
2023-05-08T22:55:11.398Z,12.93
2023-05-08T22:57:39.796Z,12.85
2023-05-08T23:00:08.872Z,12.80
2023-05-08T23:11:47.260Z,12.48
2023-05-08T23:18:29.738Z,11.55
2023-05-08T23:20:59.230Z,12.93
2023-05-08T23:23:27.510Z,13.70
2023-05-08T23:25:55.955Z,12.10
2023-05-08T23:28:24.261Z,13.05
2023-05-08T23:30:52.538Z,13.00
2023-05-08T23:33:20.908Z,14.55
2023-05-08T23:35:50.558Z,12.93
2023-05-08T23:38:18.870Z,12.43
2023-05-08T23:40:47.157Z,13.73
2023-05-08T23:43:15.506Z,13.07
2023-05-08T23:45:43.806Z,13.75
2023-05-08T23:48:12.308Z,12.82
2023-05-08T23:50:43.737Z,13.73
2023-05-08T23:53:13.374Z,13.48
2023-05-08T23:55:41.794Z,13.15
2023-05-08T23:58:10.109Z,13.80
